sensor_id;sensor_type;location;lat;lon;timestamp;temperature;humidity
22968;DHT22;11650;48.106;-1.696;2023-05-24T00:01:33;12.30;99.90
22968;DHT22;11650;48.106;-1.696;2023-05-24T00:03:59;12.30;99.90
22968;DHT22;11650;48.106;-1.696;2023-05-24T00:06:25;12.20;99.90
22968;DHT22;11650;48.106;-1.696;2023-05-24T00:08:55;12.20;99.90
22968;DHT22;11650;48.106;-1.696;2023-05-24T00:11:21;12.20;99.90
22968;DHT22;11650;48.106;-1.696;2023-05-24T00:13:47;12.20;99.90
22968;DHT22;11650;48.106;-1.696;2023-05-24T00:16:13;12.10;99.90
22968;DHT22;11650;48.106;-1.696;2023-05-24T00:18:38;12.10;99.90
22968;DHT22;11650;48.106;-1.696;2023-05-24T00:21:08;12.00;99.90
22968;DHT22;11650;48.106;-1.696;2023-05-24T00:23:34;12.00;99.90
22968;DHT22;11650;48.106;-1.696;2023-05-24T00:26:02;11.90;99.90
22968;DHT22;11650;48.106;-1.696;2023-05-24T00:28:28;11.90;99.90
22968;DHT22;11650;48.106;-1.696;2023-05-24T00:30:58;11.90;99.90
22968;DHT22;11650;48.106;-1.696;2023-05-24T00:33:24;11.90;99.90
22968;DHT22;11650;48.106;-1.696;2023-05-24T00:35:50;11.90;99.90
22968;DHT22;11650;48.106;-1.696;2023-05-24T00:38:27;11.80;99.90
22968;DHT22;11650;48.106;-1.696;2023-05-24T00:40:55;11.70;99.90
22968;DHT22;11650;48.106;-1.696;2023-05-24T00:43:22;11.70;99.90
22968;DHT22;11650;48.106;-1.696;2023-05-24T00:46:12;11.70;99.90
22968;DHT22;11650;48.106;-1.696;2023-05-24T00:48:39;11.60;99.90
22968;DHT22;11650;48.106;-1.696;2023-05-24T00:51:04;11.70;99.90
22968;DHT22;11650;48.106;-1.696;2023-05-24T00:53:31;11.60;99.90
22968;DHT22;11650;48.106;-1.696;2023-05-24T00:55:57;11.60;99.90
22968;DHT22;11650;48.106;-1.696;2023-05-24T00:58:24;11.60;99.90
22968;DHT22;11650;48.106;-1.696;2023-05-24T01:00:58;11.50;99.90
22968;DHT22;11650;48.106;-1.696;2023-05-24T01:03:25;11.50;99.90
22968;DHT22;11650;48.106;-1.696;2023-05-24T01:06:05;11.50;99.90
22968;DHT22;11650;48.106;-1.696;2023-05-24T01:11:38;11.50;99.90
22968;DHT22;11650;48.106;-1.696;2023-05-24T01:16:52;11.50;99.90
22968;DHT22;11650;48.106;-1.696;2023-05-24T01:22:12;11.40;99.90
22968;DHT22;11650;48.106;-1.696;2023-05-24T01:25:01;11.40;99.90
22968;DHT22;11650;48.106;-1.696;2023-05-24T01:27:30;11.40;99.90
22968;DHT22;11650;48.106;-1.696;2023-05-24T01:29:58;11.30;99.90
22968;DHT22;11650;48.106;-1.696;2023-05-24T01:32:24;11.30;99.90
22968;DHT22;11650;48.106;-1.696;2023-05-24T01:34:50;11.30;99.90
22968;DHT22;11650;48.106;-1.696;2023-05-24T01:37:16;11.20;99.90
22968;DHT22;11650;48.106;-1.696;2023-05-24T01:39:41;11.20;99.90
22968;DHT22;11650;48.106;-1.696;2023-05-24T01:50:59;11.10;99.90
22968;DHT22;11650;48.106;-1.696;2023-05-24T01:53:31;11.10;99.90
22968;DHT22;11650;48.106;-1.696;2023-05-24T01:56:01;11.00;99.90
22968;DHT22;11650;48.106;-1.696;2023-05-24T01:58:28;11.00;99.90
22968;DHT22;11650;48.106;-1.696;2023-05-24T02:00:55;10.90;99.90
22968;DHT22;11650;48.106;-1.696;2023-05-24T02:03:21;11.00;99.90
22968;DHT22;11650;48.106;-1.696;2023-05-24T02:05:47;10.90;99.90
22968;DHT22;11650;48.106;-1.696;2023-05-24T02:08:13;10.90;99.90
22968;DHT22;11650;48.106;-1.696;2023-05-24T02:10:39;10.90;99.90
22968;DHT22;11650;48.106;-1.696;2023-05-24T02:13:05;10.80;99.90
22968;DHT22;11650;48.106;-1.696;2023-05-24T02:15:32;10.70;99.90
22968;DHT22;11650;48.106;-1.696;2023-05-24T02:17:57;10.80;99.90
22968;DHT22;11650;48.106;-1.696;2023-05-24T02:20:25;10.70;99.90
22968;DHT22;11650;48.106;-1.696;2023-05-24T02:22:52;10.70;99.90
22968;DHT22;11650;48.106;-1.696;2023-05-24T02:25:18;10.60;99.90
22968;DHT22;11650;48.106;-1.696;2023-05-24T02:27:44;10.70;99.90
22968;DHT22;11650;48.106;-1.696;2023-05-24T02:30:12;10.70;99.90
22968;DHT22;11650;48.106;-1.696;2023-05-24T02:32:38;10.70;99.90
22968;DHT22;11650;48.106;-1.696;2023-05-24T02:35:04;10.60;99.90
22968;DHT22;11650;48.106;-1.696;2023-05-24T02:37:30;10.60;99.90
22968;DHT22;11650;48.106;-1.696;2023-05-24T02:39:55;10.50;99.90
22968;DHT22;11650;48.106;-1.696;2023-05-24T02:42:21;10.50;99.90
22968;DHT22;11650;48.106;-1.696;2023-05-24T02:44:46;10.50;99.90
22968;DHT22;11650;48.106;-1.696;2023-05-24T02:47:14;10.50;99.90
22968;DHT22;11650;48.106;-1.696;2023-05-24T02:49:40;10.50;99.90
22968;DHT22;11650;48.106;-1.696;2023-05-24T02:52:06;10.50;99.90
22968;DHT22;11650;48.106;-1.696;2023-05-24T02:54:31;10.50;99.90
22968;DHT22;11650;48.106;-1.696;2023-05-24T02:56:57;10.40;99.90
22968;DHT22;11650;48.106;-1.696;2023-05-24T02:59:23;10.40;99.90
22968;DHT22;11650;48.106;-1.696;2023-05-24T03:01:49;10.30;99.90
22968;DHT22;11650;48.106;-1.696;2023-05-24T03:04:15;10.30;99.90
22968;DHT22;11650;48.106;-1.696;2023-05-24T03:06:40;10.30;99.90
22968;DHT22;11650;48.106;-1.696;2023-05-24T03:09:06;10.30;99.90
22968;DHT22;11650;48.106;-1.696;2023-05-24T03:11:32;10.30;99.90
22968;DHT22;11650;48.106;-1.696;2023-05-24T03:13:58;10.30;99.90
22968;DHT22;11650;48.106;-1.696;2023-05-24T03:16:23;10.30;99.90
22968;DHT22;11650;48.106;-1.696;2023-05-24T03:18:49;10.30;99.90
22968;DHT22;11650;48.106;-1.696;2023-05-24T03:21:16;10.30;99.90
22968;DHT22;11650;48.106;-1.696;2023-05-24T03:23:42;10.20;99.90
22968;DHT22;11650;48.106;-1.696;2023-05-24T03:26:08;10.20;99.90
22968;DHT22;11650;48.106;-1.696;2023-05-24T03:28:33;10.20;99.90
22968;DHT22;11650;48.106;-1.696;2023-05-24T03:31:00;10.20;99.90
22968;DHT22;11650;48.106;-1.696;2023-05-24T03:33:25;10.20;99.90
22968;DHT22;11650;48.106;-1.696;2023-05-24T03:35:51;10.20;99.90
22968;DHT22;11650;48.106;-1.696;2023-05-24T03:38:17;10.20;99.90
22968;DHT22;11650;48.106;-1.696;2023-05-24T03:40:42;10.20;99.90
22968;DHT22;11650;48.106;-1.696;2023-05-24T03:43:08;10.20;99.90
22968;DHT22;11650;48.106;-1.696;2023-05-24T03:45:33;10.20;99.90
22968;DHT22;11650;48.106;-1.696;2023-05-24T03:47:59;10.20;99.90
22968;DHT22;11650;48.106;-1.696;2023-05-24T03:50:24;10.20;99.90
22968;DHT22;11650;48.106;-1.696;2023-05-24T03:52:50;10.20;99.90
22968;DHT22;11650;48.106;-1.696;2023-05-24T03:55:16;10.20;99.90
22968;DHT22;11650;48.106;-1.696;2023-05-24T03:57:42;10.20;99.90
22968;DHT22;11650;48.106;-1.696;2023-05-24T04:00:08;10.10;99.90
22968;DHT22;11650;48.106;-1.696;2023-05-24T04:02:35;10.10;99.90
22968;DHT22;11650;48.106;-1.696;2023-05-24T04:05:04;10.10;99.90
22968;DHT22;11650;48.106;-1.696;2023-05-24T04:07:35;10.10;99.90
22968;DHT22;11650;48.106;-1.696;2023-05-24T04:10:04;10.10;99.90
22968;DHT22;11650;48.106;-1.696;2023-05-24T04:12:31;10.10;99.90
22968;DHT22;11650;48.106;-1.696;2023-05-24T04:14:57;10.00;99.90
22968;DHT22;11650;48.106;-1.696;2023-05-24T04:17:23;10.10;99.90
22968;DHT22;11650;48.106;-1.696;2023-05-24T04:19:50;10.00;99.90
22968;DHT22;11650;48.106;-1.696;2023-05-24T04:22:16;10.00;99.90
22968;DHT22;11650;48.106;-1.696;2023-05-24T04:24:43;10.00;99.90
22968;DHT22;11650;48.106;-1.696;2023-05-24T04:27:09;10.00;99.90
22968;DHT22;11650;48.106;-1.696;2023-05-24T04:29:35;10.00;99.90
22968;DHT22;11650;48.106;-1.696;2023-05-24T04:32:00;10.00;99.90
22968;DHT22;11650;48.106;-1.696;2023-05-24T04:34:28;10.00;99.90
22968;DHT22;11650;48.106;-1.696;2023-05-24T04:36:54;10.00;99.90
22968;DHT22;11650;48.106;-1.696;2023-05-24T04:39:20;10.00;99.90
22968;DHT22;11650;48.106;-1.696;2023-05-24T04:41:46;10.00;99.90
22968;DHT22;11650;48.106;-1.696;2023-05-24T04:44:15;10.10;99.90
22968;DHT22;11650;48.106;-1.696;2023-05-24T04:46:41;10.00;99.90
22968;DHT22;11650;48.106;-1.696;2023-05-24T04:49:07;10.10;99.90
22968;DHT22;11650;48.106;-1.696;2023-05-24T04:51:33;10.10;99.90
22968;DHT22;11650;48.106;-1.696;2023-05-24T04:53:59;10.10;99.90
22968;DHT22;11650;48.106;-1.696;2023-05-24T04:56:26;10.20;99.90
22968;DHT22;11650;48.106;-1.696;2023-05-24T04:58:51;10.20;99.90
22968;DHT22;11650;48.106;-1.696;2023-05-24T05:01:17;10.20;99.90
22968;DHT22;11650;48.106;-1.696;2023-05-24T05:03:43;10.30;99.90
22968;DHT22;11650;48.106;-1.696;2023-05-24T05:06:10;10.30;99.90
22968;DHT22;11650;48.106;-1.696;2023-05-24T05:08:36;10.20;99.90
22968;DHT22;11650;48.106;-1.696;2023-05-24T05:11:02;10.30;99.90
22968;DHT22;11650;48.106;-1.696;2023-05-24T05:13:28;10.40;99.90
22968;DHT22;11650;48.106;-1.696;2023-05-24T05:15:53;10.40;99.90
22968;DHT22;11650;48.106;-1.696;2023-05-24T05:18:19;10.40;99.90
22968;DHT22;11650;48.106;-1.696;2023-05-24T05:20:44;10.40;99.90
22968;DHT22;11650;48.106;-1.696;2023-05-24T05:23:10;10.50;99.90
22968;DHT22;11650;48.106;-1.696;2023-05-24T05:25:36;10.50;99.90
22968;DHT22;11650;48.106;-1.696;2023-05-24T05:28:02;10.50;99.90
22968;DHT22;11650;48.106;-1.696;2023-05-24T05:30:27;10.60;99.90
22968;DHT22;11650;48.106;-1.696;2023-05-24T05:32:53;10.70;99.90
22968;DHT22;11650;48.106;-1.696;2023-05-24T05:35:18;10.60;99.90
22968;DHT22;11650;48.106;-1.696;2023-05-24T05:37:44;10.70;99.90
22968;DHT22;11650;48.106;-1.696;2023-05-24T05:40:10;10.70;99.90
22968;DHT22;11650;48.106;-1.696;2023-05-24T05:42:36;10.70;99.90
22968;DHT22;11650;48.106;-1.696;2023-05-24T05:45:02;10.80;99.90
22968;DHT22;11650;48.106;-1.696;2023-05-24T05:47:27;10.90;99.90
22968;DHT22;11650;48.106;-1.696;2023-05-24T05:49:53;11.00;99.90
22968;DHT22;11650;48.106;-1.696;2023-05-24T05:52:18;11.00;99.90
22968;DHT22;11650;48.106;-1.696;2023-05-24T05:54:45;11.10;99.90
22968;DHT22;11650;48.106;-1.696;2023-05-24T05:57:10;11.10;99.90
22968;DHT22;11650;48.106;-1.696;2023-05-24T05:59:36;11.20;99.90
22968;DHT22;11650;48.106;-1.696;2023-05-24T06:02:03;11.20;99.90
22968;DHT22;11650;48.106;-1.696;2023-05-24T06:04:30;11.30;99.90
22968;DHT22;11650;48.106;-1.696;2023-05-24T06:06:55;11.40;99.90
22968;DHT22;11650;48.106;-1.696;2023-05-24T06:09:21;11.50;99.90
22968;DHT22;11650;48.106;-1.696;2023-05-24T06:11:47;11.60;99.90
22968;DHT22;11650;48.106;-1.696;2023-05-24T06:14:15;11.70;99.90
22968;DHT22;11650;48.106;-1.696;2023-05-24T06:16:43;11.90;99.90
22968;DHT22;11650;48.106;-1.696;2023-05-24T06:19:10;11.90;99.90
22968;DHT22;11650;48.106;-1.696;2023-05-24T06:21:36;11.90;99.90
22968;DHT22;11650;48.106;-1.696;2023-05-24T06:24:02;12.00;99.90
22968;DHT22;11650;48.106;-1.696;2023-05-24T06:26:28;12.10;99.90
22968;DHT22;11650;48.106;-1.696;2023-05-24T06:28:54;12.20;99.90
22968;DHT22;11650;48.106;-1.696;2023-05-24T06:31:20;12.30;99.90
22968;DHT22;11650;48.106;-1.696;2023-05-24T06:33:45;12.30;99.90
22968;DHT22;11650;48.106;-1.696;2023-05-24T06:36:11;12.30;99.90
22968;DHT22;11650;48.106;-1.696;2023-05-24T06:38:37;12.30;99.90
22968;DHT22;11650;48.106;-1.696;2023-05-24T06:41:03;12.40;99.90
22968;DHT22;11650;48.106;-1.696;2023-05-24T06:43:29;12.30;99.90
22968;DHT22;11650;48.106;-1.696;2023-05-24T06:45:55;12.40;99.90
22968;DHT22;11650;48.106;-1.696;2023-05-24T06:48:20;12.60;99.90
22968;DHT22;11650;48.106;-1.696;2023-05-24T06:50:46;12.50;99.90
22968;DHT22;11650;48.106;-1.696;2023-05-24T06:53:12;12.50;99.90
22968;DHT22;11650;48.106;-1.696;2023-05-24T06:55:37;12.60;99.90
22968;DHT22;11650;48.106;-1.696;2023-05-24T06:58:03;12.70;99.90
22968;DHT22;11650;48.106;-1.696;2023-05-24T07:00:29;12.70;99.90
22968;DHT22;11650;48.106;-1.696;2023-05-24T07:02:55;12.70;99.90
22968;DHT22;11650;48.106;-1.696;2023-05-24T07:05:21;12.80;99.90
22968;DHT22;11650;48.106;-1.696;2023-05-24T07:07:47;12.80;99.90
22968;DHT22;11650;48.106;-1.696;2023-05-24T07:10:13;12.80;99.90
22968;DHT22;11650;48.106;-1.696;2023-05-24T07:12:39;12.90;99.90
22968;DHT22;11650;48.106;-1.696;2023-05-24T07:15:05;13.00;99.90
22968;DHT22;11650;48.106;-1.696;2023-05-24T07:17:33;13.10;99.90
22968;DHT22;11650;48.106;-1.696;2023-05-24T07:20:00;13.00;99.90
22968;DHT22;11650;48.106;-1.696;2023-05-24T07:22:26;12.90;99.90
22968;DHT22;11650;48.106;-1.696;2023-05-24T07:24:53;13.10;99.90
22968;DHT22;11650;48.106;-1.696;2023-05-24T07:27:19;13.10;99.90
22968;DHT22;11650;48.106;-1.696;2023-05-24T07:29:44;13.20;99.90
22968;DHT22;11650;48.106;-1.696;2023-05-24T07:32:11;13.30;99.90
22968;DHT22;11650;48.106;-1.696;2023-05-24T07:34:36;13.40;99.90
22968;DHT22;11650;48.106;-1.696;2023-05-24T07:37:04;13.60;99.90
22968;DHT22;11650;48.106;-1.696;2023-05-24T07:39:29;13.70;99.90
22968;DHT22;11650;48.106;-1.696;2023-05-24T07:41:55;13.60;99.90
22968;DHT22;11650;48.106;-1.696;2023-05-24T07:44:21;13.60;99.90
22968;DHT22;11650;48.106;-1.696;2023-05-24T07:46:48;13.60;99.90
22968;DHT22;11650;48.106;-1.696;2023-05-24T07:49:14;13.80;99.90
22968;DHT22;11650;48.106;-1.696;2023-05-24T07:51:40;13.90;99.90
22968;DHT22;11650;48.106;-1.696;2023-05-24T07:54:05;13.90;99.90
22968;DHT22;11650;48.106;-1.696;2023-05-24T07:56:31;14.00;99.90
22968;DHT22;11650;48.106;-1.696;2023-05-24T07:58:57;13.90;99.90
22968;DHT22;11650;48.106;-1.696;2023-05-24T08:01:32;13.90;99.90
22968;DHT22;11650;48.106;-1.696;2023-05-24T08:04:02;13.90;99.90
22968;DHT22;11650;48.106;-1.696;2023-05-24T08:06:28;13.90;99.90
22968;DHT22;11650;48.106;-1.696;2023-05-24T08:08:55;13.90;99.90
22968;DHT22;11650;48.106;-1.696;2023-05-24T08:11:21;14.00;99.90
22968;DHT22;11650;48.106;-1.696;2023-05-24T08:13:46;14.20;99.90
22968;DHT22;11650;48.106;-1.696;2023-05-24T08:16:12;14.20;99.90
22968;DHT22;11650;48.106;-1.696;2023-05-24T08:18:38;14.50;99.90
22968;DHT22;11650;48.106;-1.696;2023-05-24T08:21:04;14.50;99.90
22968;DHT22;11650;48.106;-1.696;2023-05-24T08:23:30;14.70;99.90
22968;DHT22;11650;48.106;-1.696;2023-05-24T08:25:56;14.70;99.90
22968;DHT22;11650;48.106;-1.696;2023-05-24T08:28:23;14.60;99.90
22968;DHT22;11650;48.106;-1.696;2023-05-24T08:30:48;14.60;99.90
22968;DHT22;11650;48.106;-1.696;2023-05-24T08:33:14;14.50;99.90
22968;DHT22;11650;48.106;-1.696;2023-05-24T08:35:40;14.60;99.90
22968;DHT22;11650;48.106;-1.696;2023-05-24T08:38:06;14.80;99.90
22968;DHT22;11650;48.106;-1.696;2023-05-24T08:40:32;14.80;99.90
22968;DHT22;11650;48.106;-1.696;2023-05-24T08:42:59;15.00;99.90
22968;DHT22;11650;48.106;-1.696;2023-05-24T08:45:25;15.00;99.90
22968;DHT22;11650;48.106;-1.696;2023-05-24T08:47:55;14.90;99.90
22968;DHT22;11650;48.106;-1.696;2023-05-24T08:50:21;15.00;99.90
22968;DHT22;11650;48.106;-1.696;2023-05-24T08:52:48;14.90;99.90
22968;DHT22;11650;48.106;-1.696;2023-05-24T08:55:14;15.00;99.90
22968;DHT22;11650;48.106;-1.696;2023-05-24T08:57:40;15.10;99.90
22968;DHT22;11650;48.106;-1.696;2023-05-24T09:00:08;15.30;99.90
22968;DHT22;11650;48.106;-1.696;2023-05-24T09:02:37;15.30;99.90
22968;DHT22;11650;48.106;-1.696;2023-05-24T09:05:04;15.60;99.90
22968;DHT22;11650;48.106;-1.696;2023-05-24T09:07:31;15.90;99.90
22968;DHT22;11650;48.106;-1.696;2023-05-24T09:10:02;15.90;99.90
22968;DHT22;11650;48.106;-1.696;2023-05-24T09:12:30;16.10;99.90
22968;DHT22;11650;48.106;-1.696;2023-05-24T09:14:57;15.90;99.90
22968;DHT22;11650;48.106;-1.696;2023-05-24T09:17:23;16.10;99.90
22968;DHT22;11650;48.106;-1.696;2023-05-24T09:19:50;16.30;99.90
22968;DHT22;11650;48.106;-1.696;2023-05-24T09:22:17;16.40;99.90
22968;DHT22;11650;48.106;-1.696;2023-05-24T09:24:57;16.20;99.90
22968;DHT22;11650;48.106;-1.696;2023-05-24T09:27:23;16.40;99.90
22968;DHT22;11650;48.106;-1.696;2023-05-24T09:29:49;16.60;99.90
22968;DHT22;11650;48.106;-1.696;2023-05-24T09:32:20;16.70;99.90
22968;DHT22;11650;48.106;-1.696;2023-05-24T09:34:49;16.70;99.90
22968;DHT22;11650;48.106;-1.696;2023-05-24T09:37:18;17.10;99.90
22968;DHT22;11650;48.106;-1.696;2023-05-24T09:39:45;17.20;99.90
22968;DHT22;11650;48.106;-1.696;2023-05-24T09:42:23;17.50;99.90
22968;DHT22;11650;48.106;-1.696;2023-05-24T09:45:06;17.20;99.90
22968;DHT22;11650;48.106;-1.696;2023-05-24T09:47:40;17.20;99.90
22968;DHT22;11650;48.106;-1.696;2023-05-24T09:50:11;17.50;99.90
22968;DHT22;11650;48.106;-1.696;2023-05-24T09:52:37;17.50;99.90
22968;DHT22;11650;48.106;-1.696;2023-05-24T09:55:16;17.90;99.90
22968;DHT22;11650;48.106;-1.696;2023-05-24T09:58:01;17.70;99.90
22968;DHT22;11650;48.106;-1.696;2023-05-24T10:00:28;17.70;99.90
22968;DHT22;11650;48.106;-1.696;2023-05-24T10:03:01;17.60;99.90
22968;DHT22;11650;48.106;-1.696;2023-05-24T10:05:28;17.80;99.90
22968;DHT22;11650;48.106;-1.696;2023-05-24T10:07:55;17.80;99.90
22968;DHT22;11650;48.106;-1.696;2023-05-24T10:10:21;18.00;99.90
22968;DHT22;11650;48.106;-1.696;2023-05-24T10:12:47;18.10;99.90
22968;DHT22;11650;48.106;-1.696;2023-05-24T10:15:14;18.40;99.90
22968;DHT22;11650;48.106;-1.696;2023-05-24T10:17:40;18.20;99.90
22968;DHT22;11650;48.106;-1.696;2023-05-24T10:20:06;18.30;99.90
22968;DHT22;11650;48.106;-1.696;2023-05-24T10:22:37;18.40;99.90
22968;DHT22;11650;48.106;-1.696;2023-05-24T10:25:05;18.50;99.90
22968;DHT22;11650;48.106;-1.696;2023-05-24T10:27:33;18.50;99.90
22968;DHT22;11650;48.106;-1.696;2023-05-24T10:30:14;18.90;99.90
22968;DHT22;11650;48.106;-1.696;2023-05-24T10:32:42;19.10;99.90
22968;DHT22;11650;48.106;-1.696;2023-05-24T10:35:09;19.30;99.90
22968;DHT22;11650;48.106;-1.696;2023-05-24T10:37:37;19.40;99.90
22968;DHT22;11650;48.106;-1.696;2023-05-24T10:40:04;19.30;99.90
22968;DHT22;11650;48.106;-1.696;2023-05-24T10:42:34;19.20;99.90
22968;DHT22;11650;48.106;-1.696;2023-05-24T10:45:36;19.20;99.60
22968;DHT22;11650;48.106;-1.696;2023-05-24T10:50:39;19.80;99.90
22968;DHT22;11650;48.106;-1.696;2023-05-24T10:55:57;19.90;99.30
22968;DHT22;11650;48.106;-1.696;2023-05-24T11:01:31;19.60;98.90
22968;DHT22;11650;48.106;-1.696;2023-05-24T11:04:35;19.60;99.10
22968;DHT22;11650;48.106;-1.696;2023-05-24T11:07:03;19.70;99.10
22968;DHT22;11650;48.106;-1.696;2023-05-24T11:09:30;19.90;99.20
22968;DHT22;11650;48.106;-1.696;2023-05-24T11:12:00;19.60;98.50
22968;DHT22;11650;48.106;-1.696;2023-05-24T11:14:36;19.70;98.50
22968;DHT22;11650;48.106;-1.696;2023-05-24T11:17:04;20.00;98.20
22968;DHT22;11650;48.106;-1.696;2023-05-24T11:19:48;19.90;97.30
22968;DHT22;11650;48.106;-1.696;2023-05-24T11:22:14;20.00;97.00
22968;DHT22;11650;48.106;-1.696;2023-05-24T11:24:40;20.30;97.00
22968;DHT22;11650;48.106;-1.696;2023-05-24T11:27:06;20.50;96.50
22968;DHT22;11650;48.106;-1.696;2023-05-24T11:29:42;20.60;96.40
22968;DHT22;11650;48.106;-1.696;2023-05-24T11:32:10;20.80;96.50
22968;DHT22;11650;48.106;-1.696;2023-05-24T11:34:38;20.80;97.00
22968;DHT22;11650;48.106;-1.696;2023-05-24T11:37:04;21.10;96.40
22968;DHT22;11650;48.106;-1.696;2023-05-24T11:39:35;21.30;96.40
22968;DHT22;11650;48.106;-1.696;2023-05-24T11:42:03;21.10;96.50
22968;DHT22;11650;48.106;-1.696;2023-05-24T11:44:31;21.00;96.40
22968;DHT22;11650;48.106;-1.696;2023-05-24T11:47:00;20.90;95.70
22968;DHT22;11650;48.106;-1.696;2023-05-24T11:49:26;21.30;96.00
22968;DHT22;11650;48.106;-1.696;2023-05-24T11:51:56;21.20;96.40
22968;DHT22;11650;48.106;-1.696;2023-05-24T11:54:23;21.10;95.90
22968;DHT22;11650;48.106;-1.696;2023-05-24T11:56:51;21.30;96.30
22968;DHT22;11650;48.106;-1.696;2023-05-24T12:01:47;21.50;96.00
22968;DHT22;11650;48.106;-1.696;2023-05-24T12:04:13;21.40;96.30
22968;DHT22;11650;48.106;-1.696;2023-05-24T12:06:42;21.60;94.90
22968;DHT22;11650;48.106;-1.696;2023-05-24T12:09:10;21.70;95.70
22968;DHT22;11650;48.106;-1.696;2023-05-24T12:11:41;21.30;95.50
22968;DHT22;11650;48.106;-1.696;2023-05-24T12:14:18;21.00;95.10
22968;DHT22;11650;48.106;-1.696;2023-05-24T12:16:45;21.00;95.30
22968;DHT22;11650;48.106;-1.696;2023-05-24T12:19:21;21.50;95.90
22968;DHT22;11650;48.106;-1.696;2023-05-24T12:21:47;21.40;96.00
22968;DHT22;11650;48.106;-1.696;2023-05-24T12:24:15;21.70;95.00
22968;DHT22;11650;48.106;-1.696;2023-05-24T12:26:46;22.00;95.00
22968;DHT22;11650;48.106;-1.696;2023-05-24T12:29:13;22.00;95.10
22968;DHT22;11650;48.106;-1.696;2023-05-24T12:31:40;22.00;94.90
22968;DHT22;11650;48.106;-1.696;2023-05-24T12:34:10;22.50;94.80
22968;DHT22;11650;48.106;-1.696;2023-05-24T12:36:37;22.70;95.50
22968;DHT22;11650;48.106;-1.696;2023-05-24T12:39:20;22.30;95.90
22968;DHT22;11650;48.106;-1.696;2023-05-24T12:41:52;22.30;96.40
22968;DHT22;11650;48.106;-1.696;2023-05-24T12:44:30;22.70;96.20
22968;DHT22;11650;48.106;-1.696;2023-05-24T12:46:57;22.90;95.50
22968;DHT22;11650;48.106;-1.696;2023-05-24T12:49:24;22.80;95.30
22968;DHT22;11650;48.106;-1.696;2023-05-24T12:51:50;23.50;96.70
22968;DHT22;11650;48.106;-1.696;2023-05-24T12:54:21;23.30;96.50
22968;DHT22;11650;48.106;-1.696;2023-05-24T12:56:47;23.00;95.80
22968;DHT22;11650;48.106;-1.696;2023-05-24T12:59:13;22.80;96.50
22968;DHT22;11650;48.106;-1.696;2023-05-24T13:01:39;22.80;96.80
22968;DHT22;11650;48.106;-1.696;2023-05-24T13:04:05;22.60;96.50
22968;DHT22;11650;48.106;-1.696;2023-05-24T13:06:31;23.20;96.50
22968;DHT22;11650;48.106;-1.696;2023-05-24T13:08:57;23.50;96.10
22968;DHT22;11650;48.106;-1.696;2023-05-24T13:11:22;23.70;96.90
22968;DHT22;11650;48.106;-1.696;2023-05-24T13:13:50;23.80;96.10
22968;DHT22;11650;48.106;-1.696;2023-05-24T13:16:16;24.20;96.40
22968;DHT22;11650;48.106;-1.696;2023-05-24T13:18:41;24.20;96.20
22968;DHT22;11650;48.106;-1.696;2023-05-24T13:21:07;24.20;95.60
22968;DHT22;11650;48.106;-1.696;2023-05-24T13:23:34;24.00;95.90
22968;DHT22;11650;48.106;-1.696;2023-05-24T13:26:02;24.50;95.60
22968;DHT22;11650;48.106;-1.696;2023-05-24T13:28:29;25.20;96.30
22968;DHT22;11650;48.106;-1.696;2023-05-24T13:30:55;25.90;95.70
22968;DHT22;11650;48.106;-1.696;2023-05-24T13:33:21;24.80;96.00
22968;DHT22;11650;48.106;-1.696;2023-05-24T13:35:47;24.90;96.00
22968;DHT22;11650;48.106;-1.696;2023-05-24T13:38:12;25.30;95.70
22968;DHT22;11650;48.106;-1.696;2023-05-24T13:40:39;25.70;94.50
22968;DHT22;11650;48.106;-1.696;2023-05-24T13:43:05;25.70;94.90
22968;DHT22;11650;48.106;-1.696;2023-05-24T13:45:31;26.30;95.70
22968;DHT22;11650;48.106;-1.696;2023-05-24T13:47:58;26.90;95.20
22968;DHT22;11650;48.106;-1.696;2023-05-24T13:50:29;26.80;95.10
22968;DHT22;11650;48.106;-1.696;2023-05-24T13:52:57;27.00;94.30
22968;DHT22;11650;48.106;-1.696;2023-05-24T13:55:25;26.40;94.20
22968;DHT22;11650;48.106;-1.696;2023-05-24T13:57:50;26.70;95.30
22968;DHT22;11650;48.106;-1.696;2023-05-24T14:00:16;27.30;95.30
22968;DHT22;11650;48.106;-1.696;2023-05-24T14:02:42;27.10;94.90
22968;DHT22;11650;48.106;-1.696;2023-05-24T14:05:08;26.30;95.10
22968;DHT22;11650;48.106;-1.696;2023-05-24T14:07:34;26.80;94.20
22968;DHT22;11650;48.106;-1.696;2023-05-24T14:09:59;27.20;94.60
22968;DHT22;11650;48.106;-1.696;2023-05-24T14:12:26;26.50;94.60
22968;DHT22;11650;48.106;-1.696;2023-05-24T14:14:51;27.30;94.30
22968;DHT22;11650;48.106;-1.696;2023-05-24T14:17:17;27.60;93.90
22968;DHT22;11650;48.106;-1.696;2023-05-24T14:19:43;27.60;93.50
22968;DHT22;11650;48.106;-1.696;2023-05-24T14:22:08;27.30;94.10
22968;DHT22;11650;48.106;-1.696;2023-05-24T14:24:34;26.90;94.40
22968;DHT22;11650;48.106;-1.696;2023-05-24T14:26:59;27.40;94.30
22968;DHT22;11650;48.106;-1.696;2023-05-24T14:29:26;27.90;93.60
22968;DHT22;11650;48.106;-1.696;2023-05-24T14:31:52;28.20;93.20
22968;DHT22;11650;48.106;-1.696;2023-05-24T14:34:17;28.00;94.00
22968;DHT22;11650;48.106;-1.696;2023-05-24T14:36:43;28.20;94.40
22968;DHT22;11650;48.106;-1.696;2023-05-24T14:39:09;28.80;93.50
22968;DHT22;11650;48.106;-1.696;2023-05-24T14:41:35;29.00;93.70
22968;DHT22;11650;48.106;-1.696;2023-05-24T14:44:01;29.10;93.80
22968;DHT22;11650;48.106;-1.696;2023-05-24T14:46:27;29.40;93.30
22968;DHT22;11650;48.106;-1.696;2023-05-24T14:48:52;29.50;93.10
22968;DHT22;11650;48.106;-1.696;2023-05-24T14:51:18;29.10;93.30
22968;DHT22;11650;48.106;-1.696;2023-05-24T14:53:44;29.70;92.40
22968;DHT22;11650;48.106;-1.696;2023-05-24T14:56:10;29.00;92.70
22968;DHT22;11650;48.106;-1.696;2023-05-24T14:58:38;28.80;92.70
22968;DHT22;11650;48.106;-1.696;2023-05-24T15:01:04;28.70;93.20
22968;DHT22;11650;48.106;-1.696;2023-05-24T15:03:31;29.20;93.00
22968;DHT22;11650;48.106;-1.696;2023-05-24T15:05:57;29.70;92.50
22968;DHT22;11650;48.106;-1.696;2023-05-24T15:08:22;29.00;92.90
22968;DHT22;11650;48.106;-1.696;2023-05-24T15:10:48;29.60;92.70
22968;DHT22;11650;48.106;-1.696;2023-05-24T15:13:13;28.60;93.00
22968;DHT22;11650;48.106;-1.696;2023-05-24T15:15:39;29.10;93.10
22968;DHT22;11650;48.106;-1.696;2023-05-24T15:18:06;29.90;92.20
22968;DHT22;11650;48.106;-1.696;2023-05-24T15:20:32;29.90;92.40
22968;DHT22;11650;48.106;-1.696;2023-05-24T15:22:59;29.40;92.40
22968;DHT22;11650;48.106;-1.696;2023-05-24T15:25:24;29.70;92.10
22968;DHT22;11650;48.106;-1.696;2023-05-24T15:27:50;29.80;92.20
22968;DHT22;11650;48.106;-1.696;2023-05-24T15:30:18;30.70;91.90
22968;DHT22;11650;48.106;-1.696;2023-05-24T15:32:44;31.50;92.20
22968;DHT22;11650;48.106;-1.696;2023-05-24T15:35:12;31.00;91.40
22968;DHT22;11650;48.106;-1.696;2023-05-24T15:37:39;31.30;92.10
22968;DHT22;11650;48.106;-1.696;2023-05-24T15:40:08;31.60;91.00
22968;DHT22;11650;48.106;-1.696;2023-05-24T15:42:33;31.50;91.20
22968;DHT22;11650;48.106;-1.696;2023-05-24T15:44:59;31.00;91.10